sensor_id;sensor_type;location;lat;lon;timestamp;pressure;altitude;pressure_sealevel;temperature;humidity
52777;BME280;38656;54.260;20.822;2023-04-01T00:01:59;99121.00;;;20.71;71.51
52777;BME280;38656;54.260;20.822;2023-04-01T00:04:25;99117.59;;;21.00;69.27
52777;BME280;38656;54.260;20.822;2023-04-01T00:06:52;99118.16;;;20.65;70.66
52777;BME280;38656;54.260;20.822;2023-04-01T00:09:18;99108.94;;;20.80;70.27
52777;BME280;38656;54.260;20.822;2023-04-01T00:11:44;99107.22;;;20.85;69.62
52777;BME280;38656;54.260;20.822;2023-04-01T00:14:11;99116.06;;;20.49;70.87
52777;BME280;38656;54.260;20.822;2023-04-01T00:16:37;99113.59;;;21.03;68.62
52777;BME280;38656;54.260;20.822;2023-04-01T00:19:04;99114.13;;;21.12;68.08
52777;BME280;38656;54.260;20.822;2023-04-01T00:21:30;99114.91;;;21.00;67.88
52777;BME280;38656;54.260;20.822;2023-04-01T00:23:57;99109.38;;;20.77;69.00
52777;BME280;38656;54.260;20.822;2023-04-01T00:26:23;99112.97;;;20.71;69.06
52777;BME280;38656;54.260;20.822;2023-04-01T00:28:50;99123.94;;;20.62;67.77
52777;BME280;38656;54.260;20.822;2023-04-01T00:31:17;99116.44;;;20.27;69.29
52777;BME280;38656;54.260;20.822;2023-04-01T00:33:43;99116.19;;;20.54;69.93
52777;BME280;38656;54.260;20.822;2023-04-01T00:36:11;99120.44;;;20.62;69.79
52777;BME280;38656;54.260;20.822;2023-04-01T00:38:38;99115.22;;;20.23;70.07
52777;BME280;38656;54.260;20.822;2023-04-01T00:41:05;99121.09;;;20.39;70.43
52777;BME280;38656;54.260;20.822;2023-04-01T00:43:32;99125.41;;;19.89;71.65
52777;BME280;38656;54.260;20.822;2023-04-01T00:45:59;99122.06;;;19.55;73.58
52777;BME280;38656;54.260;20.822;2023-04-01T00:48:32;99132.69;;;20.07;71.74
52777;BME280;38656;54.260;20.822;2023-04-01T00:53:32;99110.75;;;20.17;69.65
52777;BME280;38656;54.260;20.822;2023-04-01T00:56:11;99115.06;;;19.93;71.50
52777;BME280;38656;54.260;20.822;2023-04-01T00:58:45;99118.09;;;20.28;69.53
52777;BME280;38656;54.260;20.822;2023-04-01T01:01:12;99114.97;;;20.50;69.35
52777;BME280;38656;54.260;20.822;2023-04-01T01:03:38;99119.38;;;19.62;71.23
52777;BME280;38656;54.260;20.822;2023-04-01T01:06:22;99116.75;;;20.12;70.84
52777;BME280;38656;54.260;20.822;2023-04-01T01:09:02;99110.94;;;19.58;71.79
52777;BME280;38656;54.260;20.822;2023-04-01T01:16:58;99116.00;;;20.30;69.68
52777;BME280;38656;54.260;20.822;2023-04-01T01:27:29;99119.38;;;19.62;72.98
52777;BME280;38656;54.260;20.822;2023-04-01T01:30:04;99124.97;;;19.92;70.27
52777;BME280;38656;54.260;20.822;2023-04-01T01:35:33;99125.31;;;20.03;69.13
52777;BME280;38656;54.260;20.822;2023-04-01T01:38:05;99119.28;;;19.75;71.57
52777;BME280;38656;54.260;20.822;2023-04-01T01:40:34;99121.72;;;19.00;74.89
52777;BME280;38656;54.260;20.822;2023-04-01T01:43:06;99122.78;;;19.76;71.48
52777;BME280;38656;54.260;20.822;2023-04-01T01:45:37;99126.06;;;18.87;73.96
52777;BME280;38656;54.260;20.822;2023-04-01T01:48:07;99122.56;;;18.93;75.76
52777;BME280;38656;54.260;20.822;2023-04-01T01:50:35;99122.56;;;18.80;75.62
52777;BME280;38656;54.260;20.822;2023-04-01T01:53:08;99116.44;;;18.73;76.42
52777;BME280;38656;54.260;20.822;2023-04-01T01:55:40;99116.19;;;19.40;74.09
52777;BME280;38656;54.260;20.822;2023-04-01T02:01:12;99113.09;;;18.84;75.28
52777;BME280;38656;54.260;20.822;2023-04-01T02:03:40;99112.06;;;19.37;75.16
52777;BME280;38656;54.260;20.822;2023-04-01T02:06:11;99115.31;;;19.53;73.30
52777;BME280;38656;54.260;20.822;2023-04-01T02:09:04;99116.88;;;20.24;69.86
52777;BME280;38656;54.260;20.822;2023-04-01T02:11:36;99119.91;;;19.39;73.46
52777;BME280;38656;54.260;20.822;2023-04-01T02:14:12;99116.84;;;18.70;77.45
52777;BME280;38656;54.260;20.822;2023-04-01T02:17:05;99115.75;;;18.98;73.90
52777;BME280;38656;54.260;20.822;2023-04-01T02:19:36;99116.69;;;19.23;74.57
52777;BME280;38656;54.260;20.822;2023-04-01T02:22:07;99117.97;;;19.14;74.46
52777;BME280;38656;54.260;20.822;2023-04-01T02:24:36;99118.06;;;19.33;73.67
52777;BME280;38656;54.260;20.822;2023-04-01T02:27:05;99114.75;;;18.79;75.54
52777;BME280;38656;54.260;20.822;2023-04-01T02:29:32;99123.78;;;18.98;74.45
52777;BME280;38656;54.260;20.822;2023-04-01T02:31:58;99127.72;;;18.88;76.12
52777;BME280;38656;54.260;20.822;2023-04-01T02:34:25;99128.63;;;19.27;72.72
52777;BME280;38656;54.260;20.822;2023-04-01T02:36:52;99126.84;;;19.53;72.70
52777;BME280;38656;54.260;20.822;2023-04-01T02:39:19;99126.50;;;18.78;74.01
52777;BME280;38656;54.260;20.822;2023-04-01T02:41:46;99127.84;;;19.14;74.29
52777;BME280;38656;54.260;20.822;2023-04-01T02:44:14;99131.09;;;19.22;72.43
52777;BME280;38656;54.260;20.822;2023-04-01T02:46:41;99120.25;;;19.49;72.45
52777;BME280;38656;54.260;20.822;2023-04-01T02:49:07;99124.59;;;19.89;70.13
52777;BME280;38656;54.260;20.822;2023-04-01T02:51:34;99127.19;;;19.63;70.29
52777;BME280;38656;54.260;20.822;2023-04-01T02:54:01;99125.09;;;18.62;74.51
52777;BME280;38656;54.260;20.822;2023-04-01T02:56:27;99119.66;;;19.02;72.93
52777;BME280;38656;54.260;20.822;2023-04-01T02:58:54;99120.13;;;18.85;74.84
52777;BME280;38656;54.260;20.822;2023-04-01T03:01:21;99126.38;;;19.24;73.24
52777;BME280;38656;54.260;20.822;2023-04-01T03:03:47;99125.63;;;19.49;72.78
52777;BME280;38656;54.260;20.822;2023-04-01T03:06:15;99126.47;;;19.43;72.85
52777;BME280;38656;54.260;20.822;2023-04-01T03:08:42;99118.19;;;20.15;68.72
52777;BME280;38656;54.260;20.822;2023-04-01T03:11:10;99119.38;;;18.18;75.56
52777;BME280;38656;54.260;20.822;2023-04-01T03:13:37;99127.34;;;17.84;79.60
52777;BME280;38656;54.260;20.822;2023-04-01T03:16:03;99128.28;;;19.04;74.78
52777;BME280;38656;54.260;20.822;2023-04-01T03:18:29;99126.75;;;18.22;77.07
52777;BME280;38656;54.260;20.822;2023-04-01T03:20:55;99122.22;;;18.36;77.20
52777;BME280;38656;54.260;20.822;2023-04-01T03:23:22;99126.31;;;17.72;80.62
52777;BME280;38656;54.260;20.822;2023-04-01T03:25:50;99136.53;;;17.62;78.51
52777;BME280;38656;54.260;20.822;2023-04-01T03:28:16;99139.88;;;18.71;75.21
52777;BME280;38656;54.260;20.822;2023-04-01T03:30:42;99140.13;;;19.35;72.05
52777;BME280;38656;54.260;20.822;2023-04-01T03:33:08;99138.25;;;18.50;75.51
52777;BME280;38656;54.260;20.822;2023-04-01T03:35:35;99138.28;;;18.43;74.39
52777;BME280;38656;54.260;20.822;2023-04-01T03:38:02;99143.34;;;17.09;80.39
52777;BME280;38656;54.260;20.822;2023-04-01T03:40:28;99140.34;;;18.01;76.50
52777;BME280;38656;54.260;20.822;2023-04-01T03:42:54;99143.19;;;18.73;74.12
52777;BME280;38656;54.260;20.822;2023-04-01T03:45:21;99149.47;;;19.12;72.44
52777;BME280;38656;54.260;20.822;2023-04-01T03:47:48;99148.56;;;18.46;73.69
52777;BME280;38656;54.260;20.822;2023-04-01T03:50:14;99149.50;;;18.92;72.79
52777;BME280;38656;54.260;20.822;2023-04-01T03:52:40;99157.38;;;19.39;70.38
52777;BME280;38656;54.260;20.822;2023-04-01T03:55:07;99153.88;;;17.93;74.99
52777;BME280;38656;54.260;20.822;2023-04-01T03:57:33;99152.63;;;18.62;73.54
52777;BME280;38656;54.260;20.822;2023-04-01T03:59:59;99148.34;;;18.41;72.89
52777;BME280;38656;54.260;20.822;2023-04-01T04:02:26;99162.38;;;17.55;77.73
52777;BME280;38656;54.260;20.822;2023-04-01T04:04:52;99166.63;;;17.91;77.98
52777;BME280;38656;54.260;20.822;2023-04-01T04:07:18;99168.03;;;17.25;78.57
52777;BME280;38656;54.260;20.822;2023-04-01T04:09:44;99163.38;;;18.49;75.53
52777;BME280;38656;54.260;20.822;2023-04-01T04:12:10;99162.44;;;17.68;76.88
52777;BME280;38656;54.260;20.822;2023-04-01T04:14:37;99160.00;;;17.80;76.13
52777;BME280;38656;54.260;20.822;2023-04-01T04:17:03;99165.63;;;18.38;74.06
52777;BME280;38656;54.260;20.822;2023-04-01T04:19:32;99170.56;;;18.08;74.16
52777;BME280;38656;54.260;20.822;2023-04-01T04:21:59;99175.94;;;17.60;77.62
52777;BME280;38656;54.260;20.822;2023-04-01T04:24:27;99179.06;;;17.70;78.12
52777;BME280;38656;54.260;20.822;2023-04-01T04:26:53;99174.63;;;17.91;76.62
52777;BME280;38656;54.260;20.822;2023-04-01T04:29:19;99181.44;;;18.67;73.94
52777;BME280;38656;54.260;20.822;2023-04-01T04:31:45;99179.41;;;18.35;74.37
52777;BME280;38656;54.260;20.822;2023-04-01T04:34:12;99190.56;;;17.15;79.68
52777;BME280;38656;54.260;20.822;2023-04-01T04:36:38;99177.72;;;18.68;73.55
52777;BME280;38656;54.260;20.822;2023-04-01T04:39:04;99176.06;;;18.00;75.22
52777;BME280;38656;54.260;20.822;2023-04-01T04:41:30;99179.00;;;18.52;73.77
52777;BME280;38656;54.260;20.822;2023-04-01T04:43:57;99177.31;;;18.57;72.95
52777;BME280;38656;54.260;20.822;2023-04-01T04:46:24;99177.53;;;18.22;75.38
52777;BME280;38656;54.260;20.822;2023-04-01T04:48:51;99174.47;;;18.19;73.82
52777;BME280;38656;54.260;20.822;2023-04-01T04:51:18;99177.28;;;17.97;75.47
52777;BME280;38656;54.260;20.822;2023-04-01T04:53:46;99178.44;;;17.75;75.80
52777;BME280;38656;54.260;20.822;2023-04-01T04:56:12;99184.31;;;18.45;72.96
52777;BME280;38656;54.260;20.822;2023-04-01T04:58:39;99180.22;;;18.22;73.19
52777;BME280;38656;54.260;20.822;2023-04-01T05:01:11;99180.22;;;18.36;73.98
52777;BME280;38656;54.260;20.822;2023-04-01T05:03:38;99172.78;;;18.78;72.34
52777;BME280;38656;54.260;20.822;2023-04-01T05:06:05;99184.28;;;17.92;73.44
52777;BME280;38656;54.260;20.822;2023-04-01T05:08:32;99187.59;;;18.74;71.03
52777;BME280;38656;54.260;20.822;2023-04-01T05:10:59;99185.44;;;17.76;75.13
52777;BME280;38656;54.260;20.822;2023-04-01T05:13:26;99185.09;;;17.99;77.05
52777;BME280;38656;54.260;20.822;2023-04-01T05:15:52;99185.28;;;17.29;77.70
52777;BME280;38656;54.260;20.822;2023-04-01T05:18:18;99190.88;;;18.02;75.25
52777;BME280;38656;54.260;20.822;2023-04-01T05:20:49;99185.56;;;18.89;71.89
52777;BME280;38656;54.260;20.822;2023-04-01T05:23:16;99190.91;;;18.56;72.20
52777;BME280;38656;54.260;20.822;2023-04-01T05:25:43;99190.69;;;18.04;73.99
52777;BME280;38656;54.260;20.822;2023-04-01T05:28:10;99191.13;;;18.28;73.47
52777;BME280;38656;54.260;20.822;2023-04-01T05:30:39;99195.84;;;18.86;72.49
52777;BME280;38656;54.260;20.822;2023-04-01T05:33:05;99195.41;;;18.96;71.11
52777;BME280;38656;54.260;20.822;2023-04-01T05:35:31;99193.78;;;18.14;73.49
52777;BME280;38656;54.260;20.822;2023-04-01T05:37:58;99199.94;;;18.62;72.91
52777;BME280;38656;54.260;20.822;2023-04-01T05:40:24;99197.91;;;18.24;72.88
52777;BME280;38656;54.260;20.822;2023-04-01T05:42:50;99197.03;;;18.03;74.50
52777;BME280;38656;54.260;20.822;2023-04-01T05:45:17;99209.53;;;17.34;77.87
52777;BME280;38656;54.260;20.822;2023-04-01T05:47:43;99204.16;;;16.64;79.52
52777;BME280;38656;54.260;20.822;2023-04-01T05:50:10;99199.09;;;18.01;75.39
52777;BME280;38656;54.260;20.822;2023-04-01T05:52:37;99209.34;;;17.91;76.56
52777;BME280;38656;54.260;20.822;2023-04-01T05:55:04;99211.88;;;18.92;71.00
52777;BME280;38656;54.260;20.822;2023-04-01T05:57:31;99211.47;;;18.42;72.60
52777;BME280;38656;54.260;20.822;2023-04-01T05:59:57;99216.41;;;18.58;72.11
52777;BME280;38656;54.260;20.822;2023-04-01T06:02:23;99211.84;;;18.12;73.78
52777;BME280;38656;54.260;20.822;2023-04-01T06:04:51;99216.38;;;18.18;74.27
52777;BME280;38656;54.260;20.822;2023-04-01T06:07:20;99216.00;;;18.62;71.61
52777;BME280;38656;54.260;20.822;2023-04-01T06:09:47;99215.56;;;18.51;71.71
52777;BME280;38656;54.260;20.822;2023-04-01T06:15:23;99223.81;;;18.77;72.39
52777;BME280;38656;54.260;20.822;2023-04-01T06:20:59;99219.75;;;19.46;68.46
52777;BME280;38656;54.260;20.822;2023-04-01T06:27:19;99220.31;;;18.36;72.13
52777;BME280;38656;54.260;20.822;2023-04-01T06:32:47;99219.66;;;16.54;78.06
52777;BME280;38656;54.260;20.822;2023-04-01T06:40:45;99223.75;;;17.96;75.62
52777;BME280;38656;54.260;20.822;2023-04-01T06:46:15;99225.84;;;18.14;75.62
52777;BME280;38656;54.260;20.822;2023-04-01T06:54:38;99233.19;;;17.92;74.73
52777;BME280;38656;54.260;20.822;2023-04-01T06:57:22;99236.78;;;17.23;77.29
52777;BME280;38656;54.260;20.822;2023-04-01T06:59:50;99234.69;;;17.60;76.21
52777;BME280;38656;54.260;20.822;2023-04-01T07:02:22;99239.91;;;17.33;75.68
52777;BME280;38656;54.260;20.822;2023-04-01T07:04:54;99242.19;;;16.79;80.97
52777;BME280;38656;54.260;20.822;2023-04-01T07:07:25;99240.94;;;17.39;81.23
52777;BME280;38656;54.260;20.822;2023-04-01T07:09:57;99245.97;;;17.13;80.27
52777;BME280;38656;54.260;20.822;2023-04-01T07:15:01;99244.41;;;17.74;78.33
52777;BME280;38656;54.260;20.822;2023-04-01T07:17:33;99236.84;;;17.36;78.07
52777;BME280;38656;54.260;20.822;2023-04-01T07:22:56;99241.09;;;18.34;73.87
52777;BME280;38656;54.260;20.822;2023-04-01T07:27:53;99243.78;;;18.47;75.37
52777;BME280;38656;54.260;20.822;2023-04-01T07:30:24;99253.78;;;17.15;77.25
52777;BME280;38656;54.260;20.822;2023-04-01T07:32:56;99246.78;;;18.04;76.30
52777;BME280;38656;54.260;20.822;2023-04-01T07:35:30;99249.72;;;18.63;72.34
52777;BME280;38656;54.260;20.822;2023-04-01T07:38:24;99251.19;;;17.77;76.16
52777;BME280;38656;54.260;20.822;2023-04-01T07:41:23;99257.34;;;18.86;73.54
52777;BME280;38656;54.260;20.822;2023-04-01T07:49:25;99272.13;;;19.22;68.61
52777;BME280;38656;54.260;20.822;2023-04-01T07:54:58;99274.63;;;18.56;70.61
52777;BME280;38656;54.260;20.822;2023-04-01T08:00:35;99280.44;;;17.92;71.94
52777;BME280;38656;54.260;20.822;2023-04-01T08:13:53;99288.00;;;19.03;68.83
52777;BME280;38656;54.260;20.822;2023-04-01T08:22:16;99309.16;;;18.65;70.10
52777;BME280;38656;54.260;20.822;2023-04-01T08:24:47;99314.34;;;19.13;68.69
52777;BME280;38656;54.260;20.822;2023-04-01T08:27:26;99306.53;;;18.91;68.18
52777;BME280;38656;54.260;20.822;2023-04-01T08:49:15;99316.88;;;17.71;75.23
52777;BME280;38656;54.260;20.822;2023-04-01T08:55:04;99320.31;;;18.00;74.29
52777;BME280;38656;54.260;20.822;2023-04-01T09:00:20;99324.63;;;19.30;66.52
52777;BME280;38656;54.260;20.822;2023-04-01T09:08:23;99326.53;;;18.14;70.55
52777;BME280;38656;54.260;20.822;2023-04-01T09:29:53;99345.66;;;17.69;73.27
52777;BME280;38656;54.260;20.822;2023-04-01T09:35:22;99347.19;;;18.47;72.14
52777;BME280;38656;54.260;20.822;2023-04-01T09:41:04;99361.97;;;18.36;70.97
52777;BME280;38656;54.260;20.822;2023-04-01T09:43:58;99362.88;;;18.70;72.90
52777;BME280;38656;54.260;20.822;2023-04-01T09:49:26;99365.38;;;18.98;70.07
52777;BME280;38656;54.260;20.822;2023-04-01T09:55:04;99361.66;;;19.59;68.03
52777;BME280;38656;54.260;20.822;2023-04-01T10:25:57;99394.34;;;18.68;70.46
52777;BME280;38656;54.260;20.822;2023-04-01T10:28:52;99387.22;;;19.15;70.35
52777;BME280;38656;54.260;20.822;2023-04-01T10:56:59;99399.31;;;21.14;62.82
52777;BME280;38656;54.260;20.822;2023-04-01T11:05:45;99414.63;;;20.36;64.79
52777;BME280;38656;54.260;20.822;2023-04-01T11:28:02;99419.59;;;20.26;66.41
52777;BME280;38656;54.260;20.822;2023-04-01T11:41:46;99433.59;;;18.61;69.85
52777;BME280;38656;54.260;20.822;2023-04-01T11:44:28;99433.31;;;19.04;70.91
52777;BME280;38656;54.260;20.822;2023-04-01T11:50:02;99433.75;;;19.27;69.71
52777;BME280;38656;54.260;20.822;2023-04-01T11:58:29;99441.78;;;19.34;67.67
52777;BME280;38656;54.260;20.822;2023-04-01T12:04:23;99448.06;;;18.73;72.90
52777;BME280;38656;54.260;20.822;2023-04-01T12:15:29;99462.69;;;18.29;74.36
52777;BME280;38656;54.260;20.822;2023-04-01T12:18:20;99462.84;;;17.36;79.27
52777;BME280;38656;54.260;20.822;2023-04-01T12:35:12;99492.78;;;17.09;82.90
52777;BME280;38656;54.260;20.822;2023-04-01T12:37:59;99489.22;;;17.45;80.22
52777;BME280;38656;54.260;20.822;2023-04-01T13:03:04;99515.16;;;18.36;76.87
52777;BME280;38656;54.260;20.822;2023-04-01T13:05:42;99518.78;;;17.94;78.92
52777;BME280;38656;54.260;20.822;2023-04-01T13:08:36;99520.47;;;18.01;75.76
52777;BME280;38656;54.260;20.822;2023-04-01T13:27:43;99536.72;;;19.45;70.29
52777;BME280;38656;54.260;20.822;2023-04-01T13:38:53;99548.09;;;19.60;69.17
52777;BME280;38656;54.260;20.822;2023-04-01T13:44:28;99561.75;;;18.97;70.17
52777;BME280;38656;54.260;20.822;2023-04-01T13:55:14;99578.53;;;17.28;74.49
52777;BME280;38656;54.260;20.822;2023-04-01T14:09:30;99583.50;;;18.17;72.33
52777;BME280;38656;54.260;20.822;2023-04-01T14:20:55;99597.97;;;19.00;69.35
52777;BME280;38656;54.260;20.822;2023-04-01T14:23:45;99600.53;;;19.21;68.35
52777;BME280;38656;54.260;20.822;2023-04-01T14:32:16;99614.56;;;17.97;73.63
52777;BME280;38656;54.260;20.822;2023-04-01T14:43:14;99624.94;;;16.52;80.14
52777;BME280;38656;54.260;20.822;2023-04-01T14:49:20;99630.72;;;16.26;83.64
52777;BME280;38656;54.260;20.822;2023-04-01T14:51:49;99631.81;;;15.62;87.31
52777;BME280;38656;54.260;20.822;2023-04-01T14:54:32;99635.84;;;16.27;83.85
52777;BME280;38656;54.260;20.822;2023-04-01T14:57:13;99641.88;;;16.06;85.51
52777;BME280;38656;54.260;20.822;2023-04-01T14:59:45;99645.28;;;15.92;84.24
52777;BME280;38656;54.260;20.822;2023-04-01T15:21:27;99663.56;;;16.71;80.16
52777;BME280;38656;54.260;20.822;2023-04-01T15:24:22;99669.34;;;15.99;82.29
52777;BME280;38656;54.260;20.822;2023-04-01T15:27:06;99688.53;;;15.94;83.83
52777;BME280;38656;54.260;20.822;2023-04-01T15:29:39;99682.72;;;16.14;82.26
52777;BME280;38656;54.260;20.822;2023-04-01T15:35:23;99693.63;;;16.27;79.58
52777;BME280;38656;54.260;20.822;2023-04-01T15:38:03;99699.28;;;16.47;80.72
52777;BME280;38656;54.260;20.822;2023-04-01T15:41:00;99697.16;;;15.33;84.48
52777;BME280;38656;54.260;20.822;2023-04-01T15:51:54;99710.50;;;15.25;85.69
52777;BME280;38656;54.260;20.822;2023-04-01T16:00:33;99728.91;;;15.43;82.76
52777;BME280;38656;54.260;20.822;2023-04-01T16:03:17;99734.03;;;14.89;84.44
52777;BME280;38656;54.260;20.822;2023-04-01T16:13:48;99744.59;;;15.21;82.81
52777;BME280;38656;54.260;20.822;2023-04-01T16:22:01;99761.09;;;15.00;86.68
52777;BME280;38656;54.260;20.822;2023-04-01T16:24:54;99758.47;;;15.88;80.83
52777;BME280;38656;54.260;20.822;2023-04-01T16:27:41;99767.41;;;14.58;85.41
52777;BME280;38656;54.260;20.822;2023-04-01T16:30:22;99772.38;;;15.11;83.94
52777;BME280;38656;54.260;20.822;2023-04-01T16:41:34;99784.22;;;15.56;83.86
52777;BME280;38656;54.260;20.822;2023-04-01T17:02:13;99815.25;;;15.16;83.45
52777;BME280;38656;54.260;20.822;2023-04-01T17:12:58;99838.56;;;14.89;82.72
52777;BME280;38656;54.260;20.822;2023-04-01T17:21:05;99845.69;;;15.86;81.08
52777;BME280;38656;54.260;20.822;2023-04-01T17:23:53;99851.22;;;16.16;77.56
52777;BME280;38656;54.260;20.822;2023-04-01T17:42:53;99883.41;;;15.09;80.21
52777;BME280;38656;54.260;20.822;2023-04-01T17:48:12;99886.28;;;15.71;75.57
52777;BME280;38656;54.260;20.822;2023-04-01T17:56:17;99904.16;;;16.10;75.97
52777;BME280;38656;54.260;20.822;2023-04-01T17:58:50;99907.19;;;16.07;75.86
52777;BME280;38656;54.260;20.822;2023-04-01T18:01:46;99911.50;;;15.28;78.05
52777;BME280;38656;54.260;20.822;2023-04-01T18:09:41;99923.19;;;15.99;73.34
52777;BME280;38656;54.260;20.822;2023-04-01T18:12:16;99925.28;;;15.39;76.50
52777;BME280;38656;54.260;20.822;2023-04-01T18:15:24;99934.25;;;15.55;77.32
52777;BME280;38656;54.260;20.822;2023-04-01T18:26:10;99942.75;;;16.23;74.50
52777;BME280;38656;54.260;20.822;2023-04-01T18:28:43;99951.94;;;16.12;74.99
52777;BME280;38656;54.260;20.822;2023-04-01T18:31:23;99959.00;;;15.64;76.94
52777;BME280;38656;54.260;20.822;2023-04-01T18:34:13;99958.38;;;15.04;76.59
52777;BME280;38656;54.260;20.822;2023-04-01T18:36:53;99966.31;;;14.37;79.82
52777;BME280;38656;54.260;20.822;2023-04-01T18:42:21;99972.50;;;15.46;77.77
52777;BME280;38656;54.260;20.822;2023-04-01T18:45:20;99974.50;;;14.60;81.44
52777;BME280;38656;54.260;20.822;2023-04-01T18:48:03;99977.81;;;15.13;78.18
52777;BME280;38656;54.260;20.822;2023-04-01T18:53:43;99975.16;;;15.13;76.77
52777;BME280;38656;54.260;20.822;2023-04-01T18:56:35;99979.47;;;15.14;77.13
52777;BME280;38656;54.260;20.822;2023-04-01T18:59:22;99984.81;;;15.14;76.82
52777;BME280;38656;54.260;20.822;2023-04-01T19:07:47;100006.28;;;14.61;82.01
52777;BME280;38656;54.260;20.822;2023-04-01T19:09:52;100007.66;;;14.05;82.50
52777;BME280;38656;54.260;20.822;2023-04-01T19:12:23;100006.63;;;14.06;83.43
52777;BME280;38656;54.260;20.822;2023-04-01T19:20:47;100022.88;;;14.03;85.11
52777;BME280;38656;54.260;20.822;2023-04-01T19:25:59;100030.94;;;13.49;85.42
52777;BME280;38656;54.260;20.822;2023-04-01T19:36:47;100044.50;;;13.63;85.24
52777;BME280;38656;54.260;20.822;2023-04-01T19:50:42;100066.63;;;13.54;84.37
52777;BME280;38656;54.260;20.822;2023-04-01T19:53:25;100062.84;;;13.57;83.29
52777;BME280;38656;54.260;20.822;2023-04-01T19:58:31;100077.97;;;13.28;83.65
52777;BME280;38656;54.260;20.822;2023-04-01T20:01:00;100088.00;;;13.35;82.36
52777;BME280;38656;54.260;20.822;2023-04-01T20:11:48;100088.09;;;13.43;81.86
52777;BME280;38656;54.260;20.822;2023-04-01T20:16:53;100104.25;;;13.50;82.78
52777;BME280;38656;54.260;20.822;2023-04-01T20:19:43;100107.16;;;12.73;86.54
52777;BME280;38656;54.260;20.822;2023-04-01T20:31:01;100115.16;;;14.27;79.46
52777;BME280;38656;54.260;20.822;2023-04-01T20:34:20;100121.75;;;13.78;80.14
52777;BME280;38656;54.260;20.822;2023-04-01T20:51:06;100133.94;;;13.89;78.35
52777;BME280;38656;54.260;20.822;2023-04-01T20:53:55;100144.78;;;14.14;77.84
52777;BME280;38656;54.260;20.822;2023-04-01T21:07:43;100156.22;;;13.60;81.68
52777;BME280;38656;54.260;20.822;2023-04-01T21:15:50;100166.06;;;14.22;76.65
52777;BME280;38656;54.260;20.822;2023-04-01T21:18:47;100165.69;;;13.17;80.15
52777;BME280;38656;54.260;20.822;2023-04-01T21:21:38;100172.47;;;13.57;77.70
52777;BME280;38656;54.260;20.822;2023-04-01T21:32:27;100182.88;;;13.41;77.35
52777;BME280;38656;54.260;20.822;2023-04-01T21:43:45;100197.59;;;12.88;81.25
52777;BME280;38656;54.260;20.822;2023-04-01T22:03:02;100214.09;;;13.75;77.36
52777;BME280;38656;54.260;20.822;2023-04-01T22:10:38;100223.84;;;13.56;76.86
52777;BME280;38656;54.260;20.822;2023-04-01T22:18:47;100225.88;;;13.07;78.80
52777;BME280;38656;54.260;20.822;2023-04-01T22:21:44;100221.69;;;12.95;77.07
52777;BME280;38656;54.260;20.822;2023-04-01T22:24:25;100224.22;;;13.34;77.88
52777;BME280;38656;54.260;20.822;2023-04-01T22:30:18;100223.66;;;13.68;76.22
52777;BME280;38656;54.260;20.822;2023-04-01T22:32:32;100234.88;;;13.14;78.39
52777;BME280;38656;54.260;20.822;2023-04-01T22:35:09;100239.66;;;12.34;81.34
52777;BME280;38656;54.260;20.822;2023-04-01T22:42:44;100250.63;;;13.25;76.19
52777;BME280;38656;54.260;20.822;2023-04-01T22:53:13;100254.38;;;13.33;76.13
52777;BME280;38656;54.260;20.822;2023-04-01T22:55:45;100252.00;;;12.82;79.03
52777;BME280;38656;54.260;20.822;2023-04-01T22:58:16;100254.44;;;13.13;79.55
52777;BME280;38656;54.260;20.822;2023-04-01T23:00:58;100258.63;;;12.29;78.66
52777;BME280;38656;54.260;20.822;2023-04-01T23:03:34;100249.16;;;13.13;78.07
52777;BME280;38656;54.260;20.822;2023-04-01T23:06:03;100267.09;;;12.13;79.22
52777;BME280;38656;54.260;20.822;2023-04-01T23:11:33;100269.00;;;12.89;78.89
52777;BME280;38656;54.260;20.822;2023-04-01T23:19:44;100271.31;;;12.26;78.18
52777;BME280;38656;54.260;20.822;2023-04-01T23:33:32;100279.03;;;11.88;81.51
52777;BME280;38656;54.260;20.822;2023-04-01T23:36:13;100286.06;;;12.57;79.67
52777;BME280;38656;54.260;20.822;2023-04-01T23:38:42;100290.25;;;12.60;80.58
52777;BME280;38656;54.260;20.822;2023-04-01T23:41:30;100290.22;;;12.89;78.16
52777;BME280;38656;54.260;20.822;2023-04-01T23:44:01;100296.97;;;12.54;78.64
52777;BME280;38656;54.260;20.822;2023-04-01T23:46:30;100303.91;;;12.55;77.69
52777;BME280;38656;54.260;20.822;2023-04-01T23:48:58;100301.91;;;11.99;79.52
52777;BME280;38656;54.260;20.822;2023-04-01T23:51:28;100308.50;;;12.73;78.37
52777;BME280;38656;54.260;20.822;2023-04-01T23:54:17;100306.94;;;12.02;78.39
52777;BME280;38656;54.260;20.822;2023-04-01T23:56:54;100313.91;;;11.62;79.32
52777;BME280;38656;54.260;20.822;2023-04-01T23:59:31;100310.03;;;12.46;78.82
